﻿<?xml version="1.0" encoding="UTF-8" standalone="no" ?>
<gpx xmlns="http://www.topografix.com/GPX/1/1" creator="CompeGPS" version="1.1" xmlns:xsi="http://www.w3.org/2001/XMLSchema-instance" xsi:schemaLocation="http://www.topografix.com/GPX/1/1 http://www.topografix.com/GPX/1/1/gpx.xsd http://www.garmin.com/xmlschemas/GpxExtensions/v3 http://www.garmin.com/xmlschemas/GpxExtensionsv3.xsd http://www.garmin.com/xmlschemas/TrackPointExtension/v1 http://www.garmin.com/xmlschemas/TrackPointExtensionv1.xsd" xmlns:gpxtpx="http://www.garmin.com/xmlschemas/TrackPointExtension/v1">
  <metadata>
    <link href="http://www.compegps.com">
      <text>CompeGPS TEAM, SL</text>
    </link>
    <time>2014-01-18T12:28:57Z</time>
    <bounds maxlat="43.478720" maxlon="1.542007" minlat="43.468508" minlon="1.525942"/>
  </metadata>
  <trk>
    <name>deyyme</name>
    <trkseg>
      <trkpt lat="43.478688" lon="1.527120">
        <ele>219.4</ele>
        <time>2014-01-18T09:23:04Z</time>
      </trkpt>
      <trkpt lat="43.478685" lon="1.527048">
        <ele>219.8</ele>
        <time>2014-01-18T09:25:15Z</time>
      </trkpt>
      <trkpt lat="43.478612" lon="1.526992">
        <ele>220.4</ele>
        <time>2014-01-18T09:25:41Z</time>
      </trkpt>
      <trkpt lat="43.478542" lon="1.526869">
        <ele>221.0</ele>
        <time>2014-01-18T09:25:55Z</time>
      </trkpt>
      <trkpt lat="43.478448" lon="1.526768">
        <ele>223.0</ele>
        <time>2014-01-18T09:26:13Z</time>
      </trkpt>
      <trkpt lat="43.478351" lon="1.526672">
        <ele>223.8</ele>
        <time>2014-01-18T09:27:24Z</time>
      </trkpt>
      <trkpt lat="43.478239" lon="1.526645">
        <ele>224.5</ele>
        <time>2014-01-18T09:27:33Z</time>
      </trkpt>
      <trkpt lat="43.478119" lon="1.526607">
        <ele>224.7</ele>
        <time>2014-01-18T09:27:43Z</time>
      </trkpt>
      <trkpt lat="43.478010" lon="1.526591">
        <ele>225.4</ele>
        <time>2014-01-18T09:27:52Z</time>
      </trkpt>
      <trkpt lat="43.477903" lon="1.526597">
        <ele>225.6</ele>
        <time>2014-01-18T09:28:00Z</time>
      </trkpt>
      <trkpt lat="43.477800" lon="1.526629">
        <ele>226.1</ele>
        <time>2014-01-18T09:28:09Z</time>
      </trkpt>
      <trkpt lat="43.477690" lon="1.526683">
        <ele>226.4</ele>
        <time>2014-01-18T09:28:17Z</time>
      </trkpt>
      <trkpt lat="43.477601" lon="1.526765">
        <ele>226.8</ele>
        <time>2014-01-18T09:28:24Z</time>
      </trkpt>
      <trkpt lat="43.477501" lon="1.526840">
        <ele>226.8</ele>
        <time>2014-01-18T09:28:32Z</time>
      </trkpt>
      <trkpt lat="43.477403" lon="1.526825">
        <ele>227.0</ele>
        <time>2014-01-18T09:28:41Z</time>
      </trkpt>
      <trkpt lat="43.477336" lon="1.526722">
        <ele>227.3</ele>
        <time>2014-01-18T09:28:51Z</time>
      </trkpt>
      <trkpt lat="43.477261" lon="1.526614">
        <ele>227.5</ele>
        <time>2014-01-18T09:28:59Z</time>
      </trkpt>
      <trkpt lat="43.477183" lon="1.526510">
        <ele>227.0</ele>
        <time>2014-01-18T09:29:08Z</time>
      </trkpt>
      <trkpt lat="43.477102" lon="1.526436">
        <ele>226.5</ele>
        <time>2014-01-18T09:29:17Z</time>
      </trkpt>
      <trkpt lat="43.477019" lon="1.526374">
        <ele>225.4</ele>
        <time>2014-01-18T09:29:27Z</time>
      </trkpt>
      <trkpt lat="43.476934" lon="1.526300">
        <ele>225.0</ele>
        <time>2014-01-18T09:29:38Z</time>
      </trkpt>
      <trkpt lat="43.476827" lon="1.526230">
        <ele>224.1</ele>
        <time>2014-01-18T09:29:51Z</time>
      </trkpt>
      <trkpt lat="43.476714" lon="1.526173">
        <ele>223.0</ele>
        <time>2014-01-18T09:30:02Z</time>
      </trkpt>
      <trkpt lat="43.476627" lon="1.526109">
        <ele>222.0</ele>
        <time>2014-01-18T09:30:12Z</time>
      </trkpt>
      <trkpt lat="43.476528" lon="1.526044">
        <ele>221.0</ele>
        <time>2014-01-18T09:30:23Z</time>
      </trkpt>
      <trkpt lat="43.476396" lon="1.525973">
        <ele>220.6</ele>
        <time>2014-01-18T09:30:35Z</time>
      </trkpt>
      <trkpt lat="43.476244" lon="1.525942">
        <ele>220.0</ele>
        <time>2014-01-18T09:30:49Z</time>
      </trkpt>
      <trkpt lat="43.476116" lon="1.525966">
        <ele>220.1</ele>
        <time>2014-01-18T09:30:58Z</time>
      </trkpt>
      <trkpt lat="43.475991" lon="1.525983">
        <ele>219.8</ele>
        <time>2014-01-18T09:31:08Z</time>
      </trkpt>
      <trkpt lat="43.475892" lon="1.526076">
        <ele>221.3</ele>
        <time>2014-01-18T09:31:18Z</time>
      </trkpt>
      <trkpt lat="43.475802" lon="1.526164">
        <ele>222.5</ele>
        <time>2014-01-18T09:31:28Z</time>
      </trkpt>
      <trkpt lat="43.475721" lon="1.526277">
        <ele>222.9</ele>
        <time>2014-01-18T09:31:37Z</time>
      </trkpt>
      <trkpt lat="43.475627" lon="1.526351">
        <ele>223.4</ele>
        <time>2014-01-18T09:31:47Z</time>
      </trkpt>
      <trkpt lat="43.475531" lon="1.526441">
        <ele>224.2</ele>
        <time>2014-01-18T09:31:58Z</time>
      </trkpt>
      <trkpt lat="43.475431" lon="1.526562">
        <ele>224.4</ele>
        <time>2014-01-18T09:32:09Z</time>
      </trkpt>
      <trkpt lat="43.475341" lon="1.526677">
        <ele>225.2</ele>
        <time>2014-01-18T09:32:21Z</time>
      </trkpt>
      <trkpt lat="43.475256" lon="1.526777">
        <ele>226.0</ele>
        <time>2014-01-18T09:32:32Z</time>
      </trkpt>
      <trkpt lat="43.475173" lon="1.526922">
        <ele>226.7</ele>
        <time>2014-01-18T09:32:44Z</time>
      </trkpt>
      <trkpt lat="43.475087" lon="1.527035">
        <ele>228.1</ele>
        <time>2014-01-18T09:32:55Z</time>
      </trkpt>
      <trkpt lat="43.475009" lon="1.527144">
        <ele>228.4</ele>
        <time>2014-01-18T09:33:06Z</time>
      </trkpt>
      <trkpt lat="43.474937" lon="1.527276">
        <ele>228.9</ele>
        <time>2014-01-18T09:33:17Z</time>
      </trkpt>
      <trkpt lat="43.474856" lon="1.527396">
        <ele>229.7</ele>
        <time>2014-01-18T09:33:28Z</time>
      </trkpt>
      <trkpt lat="43.474770" lon="1.527502">
        <ele>230.7</ele>
        <time>2014-01-18T09:33:40Z</time>
      </trkpt>
      <trkpt lat="43.474677" lon="1.527613">
        <ele>231.5</ele>
        <time>2014-01-18T09:33:52Z</time>
      </trkpt>
      <trkpt lat="43.474589" lon="1.527690">
        <ele>231.9</ele>
        <time>2014-01-18T09:34:02Z</time>
      </trkpt>
      <trkpt lat="43.474500" lon="1.527776">
        <ele>232.5</ele>
        <time>2014-01-18T09:34:12Z</time>
      </trkpt>
      <trkpt lat="43.474410" lon="1.527879">
        <ele>232.9</ele>
        <time>2014-01-18T09:34:21Z</time>
      </trkpt>
      <trkpt lat="43.474323" lon="1.527952">
        <ele>233.1</ele>
        <time>2014-01-18T09:34:30Z</time>
      </trkpt>
      <trkpt lat="43.474229" lon="1.528022">
        <ele>233.6</ele>
        <time>2014-01-18T09:34:41Z</time>
      </trkpt>
      <trkpt lat="43.474144" lon="1.528106">
        <ele>233.9</ele>
        <time>2014-01-18T09:34:51Z</time>
      </trkpt>
      <trkpt lat="43.474068" lon="1.528167">
        <ele>234.4</ele>
        <time>2014-01-18T09:36:28Z</time>
      </trkpt>
      <trkpt lat="43.473980" lon="1.528259">
        <ele>234.5</ele>
        <time>2014-01-18T09:37:05Z</time>
      </trkpt>
      <trkpt lat="43.473891" lon="1.528361">
        <ele>234.0</ele>
        <time>2014-01-18T09:37:16Z</time>
      </trkpt>
      <trkpt lat="43.473808" lon="1.528470">
        <ele>233.8</ele>
        <time>2014-01-18T09:37:25Z</time>
      </trkpt>
      <trkpt lat="43.473725" lon="1.528561">
        <ele>233.5</ele>
        <time>2014-01-18T09:37:34Z</time>
      </trkpt>
      <trkpt lat="43.473652" lon="1.528671">
        <ele>233.2</ele>
        <time>2014-01-18T09:37:43Z</time>
      </trkpt>
      <trkpt lat="43.473579" lon="1.528775">
        <ele>232.9</ele>
        <time>2014-01-18T09:37:51Z</time>
      </trkpt>
      <trkpt lat="43.473512" lon="1.528861">
        <ele>233.2</ele>
        <time>2014-01-18T09:37:59Z</time>
      </trkpt>
      <trkpt lat="43.473441" lon="1.528959">
        <ele>232.7</ele>
        <time>2014-01-18T09:38:07Z</time>
      </trkpt>
      <trkpt lat="43.473376" lon="1.529045">
        <ele>232.5</ele>
        <time>2014-01-18T09:38:16Z</time>
      </trkpt>
      <trkpt lat="43.473304" lon="1.529132">
        <ele>232.1</ele>
        <time>2014-01-18T09:38:25Z</time>
      </trkpt>
      <trkpt lat="43.473243" lon="1.529232">
        <ele>231.2</ele>
        <time>2014-01-18T09:38:35Z</time>
      </trkpt>
      <trkpt lat="43.473165" lon="1.529316">
        <ele>229.9</ele>
        <time>2014-01-18T09:39:42Z</time>
      </trkpt>
      <trkpt lat="43.473123" lon="1.529395">
        <ele>228.9</ele>
        <time>2014-01-18T09:40:20Z</time>
      </trkpt>
      <trkpt lat="43.473060" lon="1.529499">
        <ele>229.0</ele>
        <time>2014-01-18T09:40:29Z</time>
      </trkpt>
      <trkpt lat="43.472994" lon="1.529597">
        <ele>229.0</ele>
        <time>2014-01-18T09:40:38Z</time>
      </trkpt>
      <trkpt lat="43.472941" lon="1.529696">
        <ele>228.5</ele>
        <time>2014-01-18T09:40:48Z</time>
      </trkpt>
      <trkpt lat="43.472855" lon="1.529647">
        <ele>228.5</ele>
        <time>2014-01-18T09:40:58Z</time>
      </trkpt>
      <trkpt lat="43.472767" lon="1.529582">
        <ele>228.9</ele>
        <time>2014-01-18T09:41:09Z</time>
      </trkpt>
      <trkpt lat="43.472681" lon="1.529504">
        <ele>228.9</ele>
        <time>2014-01-18T09:41:20Z</time>
      </trkpt>
      <trkpt lat="43.472598" lon="1.529433">
        <ele>229.3</ele>
        <time>2014-01-18T09:41:32Z</time>
      </trkpt>
      <trkpt lat="43.472498" lon="1.529354">
        <ele>229.2</ele>
        <time>2014-01-18T09:41:44Z</time>
      </trkpt>
      <trkpt lat="43.472399" lon="1.529271">
        <ele>228.5</ele>
        <time>2014-01-18T09:41:55Z</time>
      </trkpt>
      <trkpt lat="43.472297" lon="1.529194">
        <ele>226.6</ele>
        <time>2014-01-18T09:42:10Z</time>
      </trkpt>
      <trkpt lat="43.472194" lon="1.529117">
        <ele>224.4</ele>
        <time>2014-01-18T09:42:33Z</time>
      </trkpt>
      <trkpt lat="43.472112" lon="1.529062">
        <ele>223.5</ele>
        <time>2014-01-18T09:43:31Z</time>
      </trkpt>
      <trkpt lat="43.472030" lon="1.528985">
        <ele>221.7</ele>
        <time>2014-01-18T09:43:45Z</time>
      </trkpt>
      <trkpt lat="43.471949" lon="1.528911">
        <ele>219.1</ele>
        <time>2014-01-18T09:44:03Z</time>
      </trkpt>
      <trkpt lat="43.471878" lon="1.528841">
        <ele>217.0</ele>
        <time>2014-01-18T09:44:18Z</time>
      </trkpt>
      <trkpt lat="43.471799" lon="1.528770">
        <ele>214.5</ele>
        <time>2014-01-18T09:44:33Z</time>
      </trkpt>
      <trkpt lat="43.471697" lon="1.528730">
        <ele>210.6</ele>
        <time>2014-01-18T09:45:20Z</time>
      </trkpt>
      <trkpt lat="43.471609" lon="1.528688">
        <ele>208.4</ele>
        <time>2014-01-18T09:45:44Z</time>
      </trkpt>
      <trkpt lat="43.471525" lon="1.528590">
        <ele>205.9</ele>
        <time>2014-01-18T09:46:00Z</time>
      </trkpt>
      <trkpt lat="43.471426" lon="1.528545">
        <ele>203.0</ele>
        <time>2014-01-18T09:46:18Z</time>
      </trkpt>
      <trkpt lat="43.471313" lon="1.528512">
        <ele>199.9</ele>
        <time>2014-01-18T09:46:33Z</time>
      </trkpt>
      <trkpt lat="43.471200" lon="1.528533">
        <ele>197.4</ele>
        <time>2014-01-18T09:46:47Z</time>
      </trkpt>
      <trkpt lat="43.471126" lon="1.528619">
        <ele>195.3</ele>
        <time>2014-01-18T09:47:04Z</time>
      </trkpt>
      <trkpt lat="43.471090" lon="1.528751">
        <ele>193.0</ele>
        <time>2014-01-18T09:47:19Z</time>
      </trkpt>
      <trkpt lat="43.471054" lon="1.528926">
        <ele>190.4</ele>
        <time>2014-01-18T09:47:38Z</time>
      </trkpt>
      <trkpt lat="43.470991" lon="1.529079">
        <ele>188.8</ele>
        <time>2014-01-18T09:47:56Z</time>
      </trkpt>
      <trkpt lat="43.470936" lon="1.529265">
        <ele>186.3</ele>
        <time>2014-01-18T09:48:11Z</time>
      </trkpt>
      <trkpt lat="43.470898" lon="1.529447">
        <ele>184.2</ele>
        <time>2014-01-18T09:48:26Z</time>
      </trkpt>
      <trkpt lat="43.470873" lon="1.529645">
        <ele>182.3</ele>
        <time>2014-01-18T09:48:41Z</time>
      </trkpt>
      <trkpt lat="43.470831" lon="1.529886">
        <ele>179.9</ele>
        <time>2014-01-18T09:48:59Z</time>
      </trkpt>
      <trkpt lat="43.470795" lon="1.530088">
        <ele>177.2</ele>
        <time>2014-01-18T09:49:15Z</time>
      </trkpt>
      <trkpt lat="43.470786" lon="1.530298">
        <ele>175.1</ele>
        <time>2014-01-18T09:49:31Z</time>
      </trkpt>
      <trkpt lat="43.470748" lon="1.530495">
        <ele>173.3</ele>
        <time>2014-01-18T09:49:46Z</time>
      </trkpt>
      <trkpt lat="43.470715" lon="1.530641">
        <ele>172.2</ele>
        <time>2014-01-18T09:49:57Z</time>
      </trkpt>
      <trkpt lat="43.470653" lon="1.530760">
        <ele>171.0</ele>
        <time>2014-01-18T09:50:09Z</time>
      </trkpt>
      <trkpt lat="43.470593" lon="1.530856">
        <ele>171.7</ele>
        <time>2014-01-18T09:50:22Z</time>
      </trkpt>
      <trkpt lat="43.470529" lon="1.530975">
        <ele>172.8</ele>
        <time>2014-01-18T09:50:37Z</time>
      </trkpt>
      <trkpt lat="43.470472" lon="1.531086">
        <ele>174.5</ele>
        <time>2014-01-18T09:50:50Z</time>
      </trkpt>
      <trkpt lat="43.470417" lon="1.531192">
        <ele>176.3</ele>
        <time>2014-01-18T09:51:03Z</time>
      </trkpt>
      <trkpt lat="43.470366" lon="1.531294">
        <ele>177.7</ele>
        <time>2014-01-18T09:51:16Z</time>
      </trkpt>
      <trkpt lat="43.470304" lon="1.531414">
        <ele>179.6</ele>
        <time>2014-01-18T09:51:29Z</time>
      </trkpt>
      <trkpt lat="43.470249" lon="1.531507">
        <ele>180.5</ele>
        <time>2014-01-18T09:51:47Z</time>
      </trkpt>
      <trkpt lat="43.470196" lon="1.531609">
        <ele>181.4</ele>
        <time>2014-01-18T09:51:57Z</time>
      </trkpt>
      <trkpt lat="43.470130" lon="1.531722">
        <ele>182.3</ele>
        <time>2014-01-18T09:52:08Z</time>
      </trkpt>
      <trkpt lat="43.470070" lon="1.531834">
        <ele>183.0</ele>
        <time>2014-01-18T09:52:18Z</time>
      </trkpt>
      <trkpt lat="43.470001" lon="1.531934">
        <ele>183.4</ele>
        <time>2014-01-18T09:52:29Z</time>
      </trkpt>
      <trkpt lat="43.469927" lon="1.532044">
        <ele>184.2</ele>
        <time>2014-01-18T09:52:39Z</time>
      </trkpt>
      <trkpt lat="43.469837" lon="1.532112">
        <ele>184.4</ele>
        <time>2014-01-18T09:52:48Z</time>
      </trkpt>
      <trkpt lat="43.469741" lon="1.532138">
        <ele>184.6</ele>
        <time>2014-01-18T09:52:57Z</time>
      </trkpt>
      <trkpt lat="43.469636" lon="1.532161">
        <ele>185.0</ele>
        <time>2014-01-18T09:53:07Z</time>
      </trkpt>
      <trkpt lat="43.469578" lon="1.532256">
        <ele>185.4</ele>
        <time>2014-01-18T09:53:16Z</time>
      </trkpt>
      <trkpt lat="43.469504" lon="1.532351">
        <ele>185.8</ele>
        <time>2014-01-18T09:53:25Z</time>
      </trkpt>
      <trkpt lat="43.469425" lon="1.532432">
        <ele>186.7</ele>
        <time>2014-01-18T09:53:35Z</time>
      </trkpt>
      <trkpt lat="43.469359" lon="1.532544">
        <ele>187.2</ele>
        <time>2014-01-18T09:53:44Z</time>
      </trkpt>
      <trkpt lat="43.469340" lon="1.532671">
        <ele>187.9</ele>
        <time>2014-01-18T09:53:53Z</time>
      </trkpt>
      <trkpt lat="43.469378" lon="1.532792">
        <ele>188.5</ele>
        <time>2014-01-18T09:54:02Z</time>
      </trkpt>
      <trkpt lat="43.469421" lon="1.532905">
        <ele>188.7</ele>
        <time>2014-01-18T09:54:11Z</time>
      </trkpt>
      <trkpt lat="43.469466" lon="1.533018">
        <ele>188.5</ele>
        <time>2014-01-18T09:54:20Z</time>
      </trkpt>
      <trkpt lat="43.469464" lon="1.533149">
        <ele>188.5</ele>
        <time>2014-01-18T09:54:29Z</time>
      </trkpt>
      <trkpt lat="43.469418" lon="1.533271">
        <ele>188.4</ele>
        <time>2014-01-18T09:54:38Z</time>
      </trkpt>
      <trkpt lat="43.469382" lon="1.533395">
        <ele>188.6</ele>
        <time>2014-01-18T09:54:46Z</time>
      </trkpt>
      <trkpt lat="43.469338" lon="1.533514">
        <ele>189.0</ele>
        <time>2014-01-18T09:54:55Z</time>
      </trkpt>
      <trkpt lat="43.469299" lon="1.533626">
        <ele>188.8</ele>
        <time>2014-01-18T09:55:03Z</time>
      </trkpt>
      <trkpt lat="43.469263" lon="1.533743">
        <ele>188.8</ele>
        <time>2014-01-18T09:55:11Z</time>
      </trkpt>
      <trkpt lat="43.469205" lon="1.533853">
        <ele>188.7</ele>
        <time>2014-01-18T09:55:20Z</time>
      </trkpt>
      <trkpt lat="43.469155" lon="1.533972">
        <ele>189.1</ele>
        <time>2014-01-18T09:55:30Z</time>
      </trkpt>
      <trkpt lat="43.469106" lon="1.534089">
        <ele>189.0</ele>
        <time>2014-01-18T09:55:39Z</time>
      </trkpt>
      <trkpt lat="43.469061" lon="1.534213">
        <ele>189.0</ele>
        <time>2014-01-18T09:55:47Z</time>
      </trkpt>
      <trkpt lat="43.469017" lon="1.534328">
        <ele>189.3</ele>
        <time>2014-01-18T09:55:55Z</time>
      </trkpt>
      <trkpt lat="43.468974" lon="1.534449">
        <ele>189.2</ele>
        <time>2014-01-18T09:56:03Z</time>
      </trkpt>
      <trkpt lat="43.468933" lon="1.534570">
        <ele>189.1</ele>
        <time>2014-01-18T09:56:12Z</time>
      </trkpt>
      <trkpt lat="43.468900" lon="1.534701">
        <ele>189.6</ele>
        <time>2014-01-18T09:56:21Z</time>
      </trkpt>
      <trkpt lat="43.468859" lon="1.534824">
        <ele>189.6</ele>
        <time>2014-01-18T09:56:30Z</time>
      </trkpt>
      <trkpt lat="43.468833" lon="1.534951">
        <ele>189.9</ele>
        <time>2014-01-18T09:56:38Z</time>
      </trkpt>
      <trkpt lat="43.468793" lon="1.535067">
        <ele>190.0</ele>
        <time>2014-01-18T09:56:46Z</time>
      </trkpt>
      <trkpt lat="43.468758" lon="1.535207">
        <ele>189.8</ele>
        <time>2014-01-18T09:56:55Z</time>
      </trkpt>
      <trkpt lat="43.468725" lon="1.535332">
        <ele>189.5</ele>
        <time>2014-01-18T09:57:03Z</time>
      </trkpt>
      <trkpt lat="43.468697" lon="1.535453">
        <ele>189.6</ele>
        <time>2014-01-18T09:57:11Z</time>
      </trkpt>
      <trkpt lat="43.468659" lon="1.535583">
        <ele>190.0</ele>
        <time>2014-01-18T09:57:20Z</time>
      </trkpt>
      <trkpt lat="43.468615" lon="1.535703">
        <ele>189.7</ele>
        <time>2014-01-18T09:57:29Z</time>
      </trkpt>
      <trkpt lat="43.468572" lon="1.535840">
        <ele>189.7</ele>
        <time>2014-01-18T09:57:38Z</time>
      </trkpt>
      <trkpt lat="43.468526" lon="1.535957">
        <ele>190.0</ele>
        <time>2014-01-18T09:57:46Z</time>
      </trkpt>
      <trkpt lat="43.468508" lon="1.536070">
        <ele>191.0</ele>
        <time>2014-01-18T09:58:23Z</time>
      </trkpt>
      <trkpt lat="43.468601" lon="1.536141">
        <ele>190.8</ele>
        <time>2014-01-18T09:58:33Z</time>
      </trkpt>
      <trkpt lat="43.468679" lon="1.536222">
        <ele>190.7</ele>
        <time>2014-01-18T09:58:41Z</time>
      </trkpt>
      <trkpt lat="43.468743" lon="1.536336">
        <ele>190.4</ele>
        <time>2014-01-18T09:58:50Z</time>
      </trkpt>
      <trkpt lat="43.468758" lon="1.536475">
        <ele>190.7</ele>
        <time>2014-01-18T09:58:59Z</time>
      </trkpt>
      <trkpt lat="43.468773" lon="1.536607">
        <ele>190.7</ele>
        <time>2014-01-18T09:59:08Z</time>
      </trkpt>
      <trkpt lat="43.468782" lon="1.536736">
        <ele>192.2</ele>
        <time>2014-01-18T09:59:19Z</time>
      </trkpt>
      <trkpt lat="43.468791" lon="1.536876">
        <ele>192.5</ele>
        <time>2014-01-18T09:59:32Z</time>
      </trkpt>
      <trkpt lat="43.468792" lon="1.536996">
        <ele>193.4</ele>
        <time>2014-01-18T10:02:05Z</time>
      </trkpt>
      <trkpt lat="43.468815" lon="1.537127">
        <ele>194.1</ele>
        <time>2014-01-18T10:02:16Z</time>
      </trkpt>
      <trkpt lat="43.468831" lon="1.537250">
        <ele>194.6</ele>
        <time>2014-01-18T10:02:25Z</time>
      </trkpt>
      <trkpt lat="43.468849" lon="1.537389">
        <ele>195.8</ele>
        <time>2014-01-18T10:02:34Z</time>
      </trkpt>
      <trkpt lat="43.468865" lon="1.537509">
        <ele>196.7</ele>
        <time>2014-01-18T10:02:42Z</time>
      </trkpt>
      <trkpt lat="43.468871" lon="1.537636">
        <ele>197.7</ele>
        <time>2014-01-18T10:02:50Z</time>
      </trkpt>
      <trkpt lat="43.468883" lon="1.537764">
        <ele>199.0</ele>
        <time>2014-01-18T10:02:59Z</time>
      </trkpt>
      <trkpt lat="43.468893" lon="1.537903">
        <ele>200.4</ele>
        <time>2014-01-18T10:03:07Z</time>
      </trkpt>
      <trkpt lat="43.468913" lon="1.538039">
        <ele>201.9</ele>
        <time>2014-01-18T10:03:16Z</time>
      </trkpt>
      <trkpt lat="43.468927" lon="1.538182">
        <ele>204.2</ele>
        <time>2014-01-18T10:03:27Z</time>
      </trkpt>
      <trkpt lat="43.468956" lon="1.538314">
        <ele>206.5</ele>
        <time>2014-01-18T10:03:45Z</time>
      </trkpt>
      <trkpt lat="43.468989" lon="1.538465">
        <ele>207.0</ele>
        <time>2014-01-18T10:03:56Z</time>
      </trkpt>
      <trkpt lat="43.469027" lon="1.538595">
        <ele>208.0</ele>
        <time>2014-01-18T10:04:04Z</time>
      </trkpt>
      <trkpt lat="43.469073" lon="1.538728">
        <ele>209.5</ele>
        <time>2014-01-18T10:04:12Z</time>
      </trkpt>
      <trkpt lat="43.469116" lon="1.538842">
        <ele>210.4</ele>
        <time>2014-01-18T10:04:20Z</time>
      </trkpt>
      <trkpt lat="43.469155" lon="1.538949">
        <ele>211.3</ele>
        <time>2014-01-18T10:04:28Z</time>
      </trkpt>
      <trkpt lat="43.469190" lon="1.539068">
        <ele>212.6</ele>
        <time>2014-01-18T10:04:37Z</time>
      </trkpt>
      <trkpt lat="43.469230" lon="1.539199">
        <ele>213.9</ele>
        <time>2014-01-18T10:04:46Z</time>
      </trkpt>
      <trkpt lat="43.469265" lon="1.539321">
        <ele>214.4</ele>
        <time>2014-01-18T10:04:54Z</time>
      </trkpt>
      <trkpt lat="43.469309" lon="1.539451">
        <ele>215.2</ele>
        <time>2014-01-18T10:05:04Z</time>
      </trkpt>
      <trkpt lat="43.469341" lon="1.539577">
        <ele>215.9</ele>
        <time>2014-01-18T10:05:14Z</time>
      </trkpt>
      <trkpt lat="43.469369" lon="1.539704">
        <ele>216.5</ele>
        <time>2014-01-18T10:05:55Z</time>
      </trkpt>
      <trkpt lat="43.469389" lon="1.539823">
        <ele>216.4</ele>
        <time>2014-01-18T10:06:13Z</time>
      </trkpt>
      <trkpt lat="43.469410" lon="1.539956">
        <ele>216.4</ele>
        <time>2014-01-18T10:06:22Z</time>
      </trkpt>
      <trkpt lat="43.469436" lon="1.540079">
        <ele>216.7</ele>
        <time>2014-01-18T10:06:31Z</time>
      </trkpt>
      <trkpt lat="43.469458" lon="1.540211">
        <ele>216.8</ele>
        <time>2014-01-18T10:06:40Z</time>
      </trkpt>
      <trkpt lat="43.469477" lon="1.540340">
        <ele>217.3</ele>
        <time>2014-01-18T10:06:48Z</time>
      </trkpt>
      <trkpt lat="43.469493" lon="1.540468">
        <ele>217.6</ele>
        <time>2014-01-18T10:06:56Z</time>
      </trkpt>
      <trkpt lat="43.469519" lon="1.540602">
        <ele>217.5</ele>
        <time>2014-01-18T10:07:05Z</time>
      </trkpt>
      <trkpt lat="43.469542" lon="1.540724">
        <ele>218.0</ele>
        <time>2014-01-18T10:07:13Z</time>
      </trkpt>
      <trkpt lat="43.469563" lon="1.540837">
        <ele>218.1</ele>
        <time>2014-01-18T10:07:21Z</time>
      </trkpt>
      <trkpt lat="43.469585" lon="1.540974">
        <ele>218.6</ele>
        <time>2014-01-18T10:07:30Z</time>
      </trkpt>
      <trkpt lat="43.469602" lon="1.541107">
        <ele>218.9</ele>
        <time>2014-01-18T10:07:39Z</time>
      </trkpt>
      <trkpt lat="43.469623" lon="1.541233">
        <ele>219.0</ele>
        <time>2014-01-18T10:07:48Z</time>
      </trkpt>
      <trkpt lat="43.469642" lon="1.541368">
        <ele>219.7</ele>
        <time>2014-01-18T10:07:58Z</time>
      </trkpt>
      <trkpt lat="43.469661" lon="1.541509">
        <ele>220.2</ele>
        <time>2014-01-18T10:08:08Z</time>
      </trkpt>
      <trkpt lat="43.469692" lon="1.541648">
        <ele>220.7</ele>
        <time>2014-01-18T10:08:20Z</time>
      </trkpt>
      <trkpt lat="43.469751" lon="1.541759">
        <ele>221.2</ele>
        <time>2014-01-18T10:08:31Z</time>
      </trkpt>
      <trkpt lat="43.469802" lon="1.541872">
        <ele>221.9</ele>
        <time>2014-01-18T10:08:42Z</time>
      </trkpt>
      <trkpt lat="43.469852" lon="1.542007">
        <ele>222.4</ele>
        <time>2014-01-18T10:08:55Z</time>
      </trkpt>
      <trkpt lat="43.469946" lon="1.542006">
        <ele>223.6</ele>
        <time>2014-01-18T10:09:10Z</time>
      </trkpt>
      <trkpt lat="43.470041" lon="1.541930">
        <ele>224.2</ele>
        <time>2014-01-18T10:09:27Z</time>
      </trkpt>
      <trkpt lat="43.470144" lon="1.541876">
        <ele>224.1</ele>
        <time>2014-01-18T10:09:37Z</time>
      </trkpt>
      <trkpt lat="43.470237" lon="1.541825">
        <ele>224.3</ele>
        <time>2014-01-18T10:09:46Z</time>
      </trkpt>
      <trkpt lat="43.470328" lon="1.541761">
        <ele>224.6</ele>
        <time>2014-01-18T10:09:55Z</time>
      </trkpt>
      <trkpt lat="43.470422" lon="1.541709">
        <ele>225.0</ele>
        <time>2014-01-18T10:10:04Z</time>
      </trkpt>
      <trkpt lat="43.470508" lon="1.541656">
        <ele>224.7</ele>
        <time>2014-01-18T10:10:13Z</time>
      </trkpt>
      <trkpt lat="43.470593" lon="1.541614">
        <ele>224.5</ele>
        <time>2014-01-18T10:10:21Z</time>
      </trkpt>
      <trkpt lat="43.470696" lon="1.541551">
        <ele>224.9</ele>
        <time>2014-01-18T10:10:30Z</time>
      </trkpt>
      <trkpt lat="43.470784" lon="1.541489">
        <ele>224.8</ele>
        <time>2014-01-18T10:10:38Z</time>
      </trkpt>
      <trkpt lat="43.470866" lon="1.541444">
        <ele>225.1</ele>
        <time>2014-01-18T10:10:46Z</time>
      </trkpt>
      <trkpt lat="43.470943" lon="1.541395">
        <ele>225.4</ele>
        <time>2014-01-18T10:10:54Z</time>
      </trkpt>
      <trkpt lat="43.471049" lon="1.541343">
        <ele>226.2</ele>
        <time>2014-01-18T10:11:04Z</time>
      </trkpt>
      <trkpt lat="43.471152" lon="1.541295">
        <ele>226.8</ele>
        <time>2014-01-18T10:11:13Z</time>
      </trkpt>
      <trkpt lat="43.471254" lon="1.541237">
        <ele>227.4</ele>
        <time>2014-01-18T10:11:23Z</time>
      </trkpt>
      <trkpt lat="43.471343" lon="1.541197">
        <ele>227.8</ele>
        <time>2014-01-18T10:11:31Z</time>
      </trkpt>
      <trkpt lat="43.471440" lon="1.541140">
        <ele>228.1</ele>
        <time>2014-01-18T10:11:40Z</time>
      </trkpt>
      <trkpt lat="43.471530" lon="1.541088">
        <ele>228.8</ele>
        <time>2014-01-18T10:11:49Z</time>
      </trkpt>
      <trkpt lat="43.471617" lon="1.541040">
        <ele>229.5</ele>
        <time>2014-01-18T10:11:58Z</time>
      </trkpt>
      <trkpt lat="43.471719" lon="1.541006">
        <ele>230.9</ele>
        <time>2014-01-18T10:12:26Z</time>
      </trkpt>
      <trkpt lat="43.471823" lon="1.540980">
        <ele>230.8</ele>
        <time>2014-01-18T10:12:37Z</time>
      </trkpt>
      <trkpt lat="43.471886" lon="1.540903">
        <ele>230.8</ele>
        <time>2014-01-18T10:12:53Z</time>
      </trkpt>
      <trkpt lat="43.471992" lon="1.540901">
        <ele>230.7</ele>
        <time>2014-01-18T10:13:03Z</time>
      </trkpt>
      <trkpt lat="43.472099" lon="1.540868">
        <ele>230.6</ele>
        <time>2014-01-18T10:13:11Z</time>
      </trkpt>
      <trkpt lat="43.472204" lon="1.540850">
        <ele>231.1</ele>
        <time>2014-01-18T10:13:22Z</time>
      </trkpt>
      <trkpt lat="43.472329" lon="1.540833">
        <ele>229.7</ele>
        <time>2014-01-18T10:13:36Z</time>
      </trkpt>
      <trkpt lat="43.472435" lon="1.540919">
        <ele>229.7</ele>
        <time>2014-01-18T10:13:51Z</time>
      </trkpt>
      <trkpt lat="43.472546" lon="1.541007">
        <ele>229.8</ele>
        <time>2014-01-18T10:14:09Z</time>
      </trkpt>
      <trkpt lat="43.472639" lon="1.541109">
        <ele>229.7</ele>
        <time>2014-01-18T10:15:43Z</time>
      </trkpt>
      <trkpt lat="43.472696" lon="1.540958">
        <ele>229.1</ele>
        <time>2014-01-18T10:15:55Z</time>
      </trkpt>
      <trkpt lat="43.472758" lon="1.540832">
        <ele>228.7</ele>
        <time>2014-01-18T10:16:06Z</time>
      </trkpt>
      <trkpt lat="43.472821" lon="1.540699">
        <ele>228.1</ele>
        <time>2014-01-18T10:16:17Z</time>
      </trkpt>
      <trkpt lat="43.472881" lon="1.540594">
        <ele>227.4</ele>
        <time>2014-01-18T10:16:27Z</time>
      </trkpt>
      <trkpt lat="43.472948" lon="1.540461">
        <ele>226.4</ele>
        <time>2014-01-18T10:16:38Z</time>
      </trkpt>
      <trkpt lat="43.473013" lon="1.540342">
        <ele>225.7</ele>
        <time>2014-01-18T10:16:48Z</time>
      </trkpt>
      <trkpt lat="43.473066" lon="1.540243">
        <ele>225.4</ele>
        <time>2014-01-18T10:16:56Z</time>
      </trkpt>
      <trkpt lat="43.473142" lon="1.540154">
        <ele>224.4</ele>
        <time>2014-01-18T10:17:05Z</time>
      </trkpt>
      <trkpt lat="43.473201" lon="1.540046">
        <ele>223.5</ele>
        <time>2014-01-18T10:17:14Z</time>
      </trkpt>
      <trkpt lat="43.473293" lon="1.539946">
        <ele>223.0</ele>
        <time>2014-01-18T10:17:26Z</time>
      </trkpt>
      <trkpt lat="43.473342" lon="1.539811">
        <ele>222.9</ele>
        <time>2014-01-18T10:17:36Z</time>
      </trkpt>
      <trkpt lat="43.473407" lon="1.539708">
        <ele>222.5</ele>
        <time>2014-01-18T10:17:45Z</time>
      </trkpt>
      <trkpt lat="43.473467" lon="1.539582">
        <ele>222.0</ele>
        <time>2014-01-18T10:17:56Z</time>
      </trkpt>
      <trkpt lat="43.473522" lon="1.539488">
        <ele>221.5</ele>
        <time>2014-01-18T10:18:07Z</time>
      </trkpt>
      <trkpt lat="43.473578" lon="1.539382">
        <ele>220.3</ele>
        <time>2014-01-18T10:18:28Z</time>
      </trkpt>
      <trkpt lat="43.473639" lon="1.539259">
        <ele>220.0</ele>
        <time>2014-01-18T10:18:38Z</time>
      </trkpt>
      <trkpt lat="43.473686" lon="1.539152">
        <ele>219.1</ele>
        <time>2014-01-18T10:18:47Z</time>
      </trkpt>
      <trkpt lat="43.473738" lon="1.539046">
        <ele>218.2</ele>
        <time>2014-01-18T10:18:57Z</time>
      </trkpt>
      <trkpt lat="43.473802" lon="1.538935">
        <ele>217.5</ele>
        <time>2014-01-18T10:19:07Z</time>
      </trkpt>
      <trkpt lat="43.473857" lon="1.538838">
        <ele>216.6</ele>
        <time>2014-01-18T10:19:17Z</time>
      </trkpt>
      <trkpt lat="43.473909" lon="1.538724">
        <ele>215.6</ele>
        <time>2014-01-18T10:19:27Z</time>
      </trkpt>
      <trkpt lat="43.473971" lon="1.538610">
        <ele>214.8</ele>
        <time>2014-01-18T10:19:37Z</time>
      </trkpt>
      <trkpt lat="43.474023" lon="1.538504">
        <ele>213.7</ele>
        <time>2014-01-18T10:19:50Z</time>
      </trkpt>
      <trkpt lat="43.474074" lon="1.538450">
        <ele>213.0</ele>
        <time>2014-01-18T10:21:34Z</time>
      </trkpt>
      <trkpt lat="43.474124" lon="1.538339">
        <ele>212.7</ele>
        <time>2014-01-18T10:21:47Z</time>
      </trkpt>
      <trkpt lat="43.474178" lon="1.538223">
        <ele>212.3</ele>
        <time>2014-01-18T10:22:35Z</time>
      </trkpt>
      <trkpt lat="43.474236" lon="1.538120">
        <ele>211.7</ele>
        <time>2014-01-18T10:22:44Z</time>
      </trkpt>
      <trkpt lat="43.474294" lon="1.538024">
        <ele>211.2</ele>
        <time>2014-01-18T10:22:53Z</time>
      </trkpt>
      <trkpt lat="43.474357" lon="1.537931">
        <ele>210.6</ele>
        <time>2014-01-18T10:23:02Z</time>
      </trkpt>
      <trkpt lat="43.474412" lon="1.537816">
        <ele>209.7</ele>
        <time>2014-01-18T10:23:11Z</time>
      </trkpt>
      <trkpt lat="43.474454" lon="1.537715">
        <ele>208.6</ele>
        <time>2014-01-18T10:23:19Z</time>
      </trkpt>
      <trkpt lat="43.474518" lon="1.537609">
        <ele>207.9</ele>
        <time>2014-01-18T10:23:28Z</time>
      </trkpt>
      <trkpt lat="43.474574" lon="1.537501">
        <ele>207.2</ele>
        <time>2014-01-18T10:23:37Z</time>
      </trkpt>
      <trkpt lat="43.474624" lon="1.537394">
        <ele>206.8</ele>
        <time>2014-01-18T10:23:45Z</time>
      </trkpt>
      <trkpt lat="43.474684" lon="1.537305">
        <ele>206.4</ele>
        <time>2014-01-18T10:23:53Z</time>
      </trkpt>
      <trkpt lat="43.474741" lon="1.537197">
        <ele>206.3</ele>
        <time>2014-01-18T10:24:02Z</time>
      </trkpt>
      <trkpt lat="43.474798" lon="1.537097">
        <ele>205.7</ele>
        <time>2014-01-18T10:24:11Z</time>
      </trkpt>
      <trkpt lat="43.474862" lon="1.536996">
        <ele>204.9</ele>
        <time>2014-01-18T10:24:20Z</time>
      </trkpt>
      <trkpt lat="43.474919" lon="1.536895">
        <ele>204.7</ele>
        <time>2014-01-18T10:24:29Z</time>
      </trkpt>
      <trkpt lat="43.474974" lon="1.536783">
        <ele>204.2</ele>
        <time>2014-01-18T10:24:38Z</time>
      </trkpt>
      <trkpt lat="43.475024" lon="1.536681">
        <ele>203.9</ele>
        <time>2014-01-18T10:24:47Z</time>
      </trkpt>
      <trkpt lat="43.475079" lon="1.536570">
        <ele>203.6</ele>
        <time>2014-01-18T10:24:56Z</time>
      </trkpt>
      <trkpt lat="43.475131" lon="1.536455">
        <ele>203.3</ele>
        <time>2014-01-18T10:25:05Z</time>
      </trkpt>
      <trkpt lat="43.475190" lon="1.536347">
        <ele>202.9</ele>
        <time>2014-01-18T10:25:14Z</time>
      </trkpt>
      <trkpt lat="43.475249" lon="1.536228">
        <ele>202.7</ele>
        <time>2014-01-18T10:25:24Z</time>
      </trkpt>
      <trkpt lat="43.475309" lon="1.536118">
        <ele>202.6</ele>
        <time>2014-01-18T10:25:34Z</time>
      </trkpt>
      <trkpt lat="43.475360" lon="1.536012">
        <ele>202.5</ele>
        <time>2014-01-18T10:25:43Z</time>
      </trkpt>
      <trkpt lat="43.475413" lon="1.535900">
        <ele>202.1</ele>
        <time>2014-01-18T10:25:55Z</time>
      </trkpt>
      <trkpt lat="43.475465" lon="1.535794">
        <ele>202.1</ele>
        <time>2014-01-18T10:26:04Z</time>
      </trkpt>
      <trkpt lat="43.475518" lon="1.535691">
        <ele>202.1</ele>
        <time>2014-01-18T10:26:13Z</time>
      </trkpt>
      <trkpt lat="43.475573" lon="1.535591">
        <ele>201.7</ele>
        <time>2014-01-18T10:26:22Z</time>
      </trkpt>
      <trkpt lat="43.475625" lon="1.535477">
        <ele>201.1</ele>
        <time>2014-01-18T10:26:32Z</time>
      </trkpt>
      <trkpt lat="43.475690" lon="1.535365">
        <ele>200.0</ele>
        <time>2014-01-18T10:26:43Z</time>
      </trkpt>
      <trkpt lat="43.475754" lon="1.535256">
        <ele>199.1</ele>
        <time>2014-01-18T10:26:52Z</time>
      </trkpt>
      <trkpt lat="43.475819" lon="1.535142">
        <ele>198.5</ele>
        <time>2014-01-18T10:27:01Z</time>
      </trkpt>
      <trkpt lat="43.475869" lon="1.535036">
        <ele>198.4</ele>
        <time>2014-01-18T10:27:11Z</time>
      </trkpt>
      <trkpt lat="43.475930" lon="1.534939">
        <ele>197.7</ele>
        <time>2014-01-18T10:27:21Z</time>
      </trkpt>
      <trkpt lat="43.475997" lon="1.534831">
        <ele>196.8</ele>
        <time>2014-01-18T10:27:32Z</time>
      </trkpt>
      <trkpt lat="43.476043" lon="1.534736">
        <ele>196.2</ele>
        <time>2014-01-18T10:28:08Z</time>
      </trkpt>
      <trkpt lat="43.476103" lon="1.534643">
        <ele>194.8</ele>
        <time>2014-01-18T10:28:20Z</time>
      </trkpt>
      <trkpt lat="43.476110" lon="1.534510">
        <ele>194.1</ele>
        <time>2014-01-18T10:28:49Z</time>
      </trkpt>
      <trkpt lat="43.476097" lon="1.534366">
        <ele>192.5</ele>
        <time>2014-01-18T10:29:00Z</time>
      </trkpt>
      <trkpt lat="43.476096" lon="1.534225">
        <ele>189.8</ele>
        <time>2014-01-18T10:29:15Z</time>
      </trkpt>
      <trkpt lat="43.476094" lon="1.534095">
        <ele>187.9</ele>
        <time>2014-01-18T10:29:27Z</time>
      </trkpt>
      <trkpt lat="43.476087" lon="1.533962">
        <ele>186.5</ele>
        <time>2014-01-18T10:29:38Z</time>
      </trkpt>
      <trkpt lat="43.476080" lon="1.533830">
        <ele>184.7</ele>
        <time>2014-01-18T10:29:49Z</time>
      </trkpt>
      <trkpt lat="43.476077" lon="1.533700">
        <ele>183.2</ele>
        <time>2014-01-18T10:30:00Z</time>
      </trkpt>
      <trkpt lat="43.476071" lon="1.533556">
        <ele>181.1</ele>
        <time>2014-01-18T10:30:13Z</time>
      </trkpt>
      <trkpt lat="43.476062" lon="1.533416">
        <ele>178.9</ele>
        <time>2014-01-18T10:30:26Z</time>
      </trkpt>
      <trkpt lat="43.476048" lon="1.533267">
        <ele>177.4</ele>
        <time>2014-01-18T10:30:37Z</time>
      </trkpt>
      <trkpt lat="43.476043" lon="1.533143">
        <ele>175.9</ele>
        <time>2014-01-18T10:30:49Z</time>
      </trkpt>
      <trkpt lat="43.476028" lon="1.533013">
        <ele>174.8</ele>
        <time>2014-01-18T10:31:00Z</time>
      </trkpt>
      <trkpt lat="43.475996" lon="1.532881">
        <ele>174.1</ele>
        <time>2014-01-18T10:31:10Z</time>
      </trkpt>
      <trkpt lat="43.475961" lon="1.532752">
        <ele>173.3</ele>
        <time>2014-01-18T10:31:20Z</time>
      </trkpt>
      <trkpt lat="43.475928" lon="1.532613">
        <ele>172.3</ele>
        <time>2014-01-18T10:31:30Z</time>
      </trkpt>
      <trkpt lat="43.475887" lon="1.532484">
        <ele>171.8</ele>
        <time>2014-01-18T10:31:39Z</time>
      </trkpt>
      <trkpt lat="43.475823" lon="1.532317">
        <ele>171.4</ele>
        <time>2014-01-18T10:31:50Z</time>
      </trkpt>
      <trkpt lat="43.475779" lon="1.532182">
        <ele>170.9</ele>
        <time>2014-01-18T10:32:00Z</time>
      </trkpt>
      <trkpt lat="43.475756" lon="1.532022">
        <ele>170.5</ele>
        <time>2014-01-18T10:32:15Z</time>
      </trkpt>
      <trkpt lat="43.475812" lon="1.531887">
        <ele>170.8</ele>
        <time>2014-01-18T10:32:32Z</time>
      </trkpt>
      <trkpt lat="43.475843" lon="1.531749">
        <ele>172.2</ele>
        <time>2014-01-18T10:32:45Z</time>
      </trkpt>
      <trkpt lat="43.475904" lon="1.531644">
        <ele>174.2</ele>
        <time>2014-01-18T10:33:02Z</time>
      </trkpt>
      <trkpt lat="43.476000" lon="1.531518">
        <ele>177.0</ele>
        <time>2014-01-18T10:33:22Z</time>
      </trkpt>
      <trkpt lat="43.476071" lon="1.531392">
        <ele>179.4</ele>
        <time>2014-01-18T10:33:39Z</time>
      </trkpt>
      <trkpt lat="43.476148" lon="1.531266">
        <ele>181.3</ele>
        <time>2014-01-18T10:33:58Z</time>
      </trkpt>
      <trkpt lat="43.476235" lon="1.531134">
        <ele>183.5</ele>
        <time>2014-01-18T10:34:17Z</time>
      </trkpt>
      <trkpt lat="43.476322" lon="1.531011">
        <ele>185.6</ele>
        <time>2014-01-18T10:34:35Z</time>
      </trkpt>
      <trkpt lat="43.476412" lon="1.530905">
        <ele>187.7</ele>
        <time>2014-01-18T10:34:51Z</time>
      </trkpt>
      <trkpt lat="43.476466" lon="1.530789">
        <ele>189.9</ele>
        <time>2014-01-18T10:35:09Z</time>
      </trkpt>
      <trkpt lat="43.476537" lon="1.530661">
        <ele>192.2</ele>
        <time>2014-01-18T10:35:26Z</time>
      </trkpt>
      <trkpt lat="43.476612" lon="1.530546">
        <ele>194.0</ele>
        <time>2014-01-18T10:35:40Z</time>
      </trkpt>
      <trkpt lat="43.476665" lon="1.530418">
        <ele>195.8</ele>
        <time>2014-01-18T10:35:55Z</time>
      </trkpt>
      <trkpt lat="43.476701" lon="1.530286">
        <ele>197.9</ele>
        <time>2014-01-18T10:36:12Z</time>
      </trkpt>
      <trkpt lat="43.476738" lon="1.530150">
        <ele>199.3</ele>
        <time>2014-01-18T10:36:29Z</time>
      </trkpt>
      <trkpt lat="43.476764" lon="1.529997">
        <ele>201.3</ele>
        <time>2014-01-18T10:36:48Z</time>
      </trkpt>
      <trkpt lat="43.476810" lon="1.529846">
        <ele>203.3</ele>
        <time>2014-01-18T10:37:06Z</time>
      </trkpt>
      <trkpt lat="43.476858" lon="1.529772">
        <ele>204.8</ele>
        <time>2014-01-18T10:37:45Z</time>
      </trkpt>
      <trkpt lat="43.476872" lon="1.529771">
        <ele>205.3</ele>
        <time>2014-01-18T10:38:53Z</time>
      </trkpt>
      <trkpt lat="43.476941" lon="1.529610">
        <ele>206.7</ele>
        <time>2014-01-18T10:39:10Z</time>
      </trkpt>
      <trkpt lat="43.477022" lon="1.529449">
        <ele>209.5</ele>
        <time>2014-01-18T10:39:28Z</time>
      </trkpt>
      <trkpt lat="43.477121" lon="1.529295">
        <ele>211.5</ele>
        <time>2014-01-18T10:39:44Z</time>
      </trkpt>
      <trkpt lat="43.477216" lon="1.529177">
        <ele>214.5</ele>
        <time>2014-01-18T10:40:02Z</time>
      </trkpt>
      <trkpt lat="43.477300" lon="1.529023">
        <ele>216.7</ele>
        <time>2014-01-18T10:40:19Z</time>
      </trkpt>
      <trkpt lat="43.477405" lon="1.528906">
        <ele>218.9</ele>
        <time>2014-01-18T10:40:35Z</time>
      </trkpt>
      <trkpt lat="43.477498" lon="1.528787">
        <ele>220.9</ele>
        <time>2014-01-18T10:40:49Z</time>
      </trkpt>
      <trkpt lat="43.477555" lon="1.528680">
        <ele>222.8</ele>
        <time>2014-01-18T10:41:03Z</time>
      </trkpt>
      <trkpt lat="43.477626" lon="1.528546">
        <ele>223.9</ele>
        <time>2014-01-18T10:41:17Z</time>
      </trkpt>
      <trkpt lat="43.477699" lon="1.528424">
        <ele>224.7</ele>
        <time>2014-01-18T10:41:29Z</time>
      </trkpt>
      <trkpt lat="43.477763" lon="1.528284">
        <ele>226.1</ele>
        <time>2014-01-18T10:41:43Z</time>
      </trkpt>
      <trkpt lat="43.477854" lon="1.528177">
        <ele>227.5</ele>
        <time>2014-01-18T10:41:58Z</time>
      </trkpt>
      <trkpt lat="43.477964" lon="1.528167">
        <ele>228.2</ele>
        <time>2014-01-18T10:42:12Z</time>
      </trkpt>
      <trkpt lat="43.478058" lon="1.528088">
        <ele>228.6</ele>
        <time>2014-01-18T10:42:26Z</time>
      </trkpt>
      <trkpt lat="43.478159" lon="1.528004">
        <ele>228.6</ele>
        <time>2014-01-18T10:42:39Z</time>
      </trkpt>
      <trkpt lat="43.478236" lon="1.527885">
        <ele>228.7</ele>
        <time>2014-01-18T10:42:51Z</time>
      </trkpt>
      <trkpt lat="43.478306" lon="1.527785">
        <ele>228.4</ele>
        <time>2014-01-18T10:43:02Z</time>
      </trkpt>
      <trkpt lat="43.478385" lon="1.527694">
        <ele>228.1</ele>
        <time>2014-01-18T10:43:13Z</time>
      </trkpt>
      <trkpt lat="43.478428" lon="1.527574">
        <ele>228.3</ele>
        <time>2014-01-18T10:43:30Z</time>
      </trkpt>
      <trkpt lat="43.478495" lon="1.527473">
        <ele>228.8</ele>
        <time>2014-01-18T10:43:41Z</time>
      </trkpt>
      <trkpt lat="43.478550" lon="1.527367">
        <ele>228.8</ele>
        <time>2014-01-18T10:43:52Z</time>
      </trkpt>
      <trkpt lat="43.478631" lon="1.527274">
        <ele>228.7</ele>
        <time>2014-01-18T10:44:04Z</time>
      </trkpt>
      <trkpt lat="43.478692" lon="1.527164">
        <ele>229.2</ele>
        <time>2014-01-18T10:44:16Z</time>
      </trkpt>
      <trkpt lat="43.478720" lon="1.527117">
        <ele>230.4</ele>
        <time>2014-01-18T10:44:55Z</time>
      </trkpt>
    </trkseg>
  </trk>
</gpx>

